createdAt,value
2019-01-21T00:00:02.514Z,85.53
2019-01-21T00:05:03.176Z,85.6
2019-01-21T00:10:01.836Z,85.66
2019-01-21T00:15:03.239Z,85.63
2019-01-21T00:20:02.596Z,85.55
2019-01-21T00:25:03.001Z,85.39
2019-01-21T00:30:02.420Z,85.38
2019-01-21T00:35:02.867Z,85.47
2019-01-21T00:40:03.257Z,85.53
2019-01-21T00:45:02.618Z,85.5
2019-01-21T00:50:02.970Z,85.41
2019-01-21T00:55:02.384Z,85.31
2019-01-21T01:00:02.713Z,85.27
2019-01-21T01:05:02.866Z,85.38
2019-01-21T01:10:02.380Z,85.42
2019-01-21T01:15:02.727Z,85.38
2019-01-21T01:20:02.417Z,85.32
2019-01-21T01:25:02.834Z,85.21
2019-01-21T01:30:03.234Z,85.17
2019-01-21T01:35:02.655Z,85.26
2019-01-21T01:40:03.033Z,85.28
2019-01-21T01:45:02.415Z,85.27
2019-01-21T01:50:02.867Z,85.2
2019-01-21T01:55:03.316Z,85.07
2019-01-21T02:00:02.724Z,85.02
2019-01-21T02:05:02.312Z,85.12
2019-01-21T02:10:02.790Z,85.18
2019-01-21T02:15:03.231Z,85.19
2019-01-21T02:20:02.777Z,85.11
2019-01-21T02:25:03.206Z,84.98
2019-01-21T02:30:02.923Z,85.0
2019-01-21T02:35:03.416Z,85.07
2019-01-21T02:40:02.880Z,85.09
2019-01-21T02:45:03.335Z,85.08
2019-01-21T02:50:02.742Z,84.98
2019-01-21T02:55:03.096Z,84.88
2019-01-21T03:00:02.501Z,84.88
2019-01-21T03:05:02.045Z,84.96
2019-01-21T03:10:02.474Z,85.0
2019-01-21T03:15:02.918Z,84.99
2019-01-21T03:20:03.363Z,84.9
2019-01-21T03:25:02.784Z,84.85
2019-01-21T03:30:02.566Z,84.87
2019-01-21T03:35:02.160Z,84.96
2019-01-21T03:40:02.633Z,84.99
2019-01-21T03:45:03.027Z,84.92
2019-01-21T03:50:02.430Z,84.84
2019-01-21T03:55:03.091Z,84.74
2019-01-21T04:00:02.506Z,84.79
2019-01-21T04:05:02.147Z,84.93
2019-01-21T04:10:02.568Z,84.93
2019-01-21T04:15:03.033Z,84.87
2019-01-21T04:20:02.466Z,84.77
2019-01-21T04:25:02.909Z,84.68
2019-01-21T04:30:02.529Z,84.71
2019-01-21T04:35:02.947Z,84.81
2019-01-21T04:40:02.367Z,84.83
2019-01-21T04:45:02.811Z,84.75
2019-01-21T04:50:03.261Z,84.69
2019-01-21T04:55:02.981Z,84.62
2019-01-21T05:00:01.512Z,84.69
2019-01-21T05:05:02.988Z,84.77
2019-01-21T05:10:02.468Z,84.77
2019-01-21T05:15:02.810Z,84.64
2019-01-21T05:20:02.538Z,84.56
2019-01-21T05:25:03.007Z,84.51
2019-01-21T05:30:03.110Z,84.56
2019-01-21T05:35:02.540Z,84.68
2019-01-21T05:40:02.980Z,84.69
2019-01-21T05:45:02.393Z,84.57
2019-01-21T05:50:02.835Z,84.49
2019-01-21T05:55:03.197Z,84.54
2019-01-21T06:00:02.587Z,84.63
2019-01-21T06:05:02.944Z,84.71
2019-01-21T06:10:02.457Z,84.68
2019-01-21T06:15:02.805Z,84.56
2019-01-21T06:20:03.164Z,84.54
2019-01-21T06:25:02.565Z,84.57
2019-01-21T06:30:02.996Z,84.69
2019-01-21T06:35:02.421Z,84.7
2019-01-21T06:40:02.115Z,84.7
2019-01-21T06:45:02.517Z,84.57
2019-01-21T06:50:02.927Z,84.55
2019-01-21T06:55:03.285Z,84.6
2019-01-21T07:00:02.697Z,84.67
2019-01-21T07:05:02.332Z,84.65
2019-01-21T07:10:02.765Z,84.64
2019-01-21T07:15:03.215Z,84.53
2019-01-21T07:20:02.618Z,84.49
2019-01-21T07:25:02.959Z,84.57
2019-01-21T07:30:04.343Z,84.64
2019-01-21T07:35:02.829Z,84.67
2019-01-21T07:40:03.258Z,84.64
2019-01-21T07:45:02.691Z,84.6
2019-01-21T07:50:03.131Z,84.56
2019-01-21T07:55:02.540Z,84.66
2019-01-21T08:00:02.898Z,84.76
2019-01-21T08:05:03.332Z,84.78
2019-01-21T08:10:02.740Z,84.75
2019-01-21T08:15:03.098Z,84.68
2019-01-21T08:20:02.504Z,84.65
2019-01-21T08:25:02.856Z,84.73
2019-01-21T08:30:03.297Z,84.79
2019-01-21T08:35:02.709Z,84.85
2019-01-21T08:40:03.151Z,84.85
2019-01-21T08:45:02.594Z,84.72
2019-01-21T08:50:03.026Z,84.69
2019-01-21T08:55:02.444Z,84.76
2019-01-21T09:00:02.918Z,84.86
2019-01-21T09:05:03.328Z,84.91
2019-01-21T09:10:02.738Z,84.87
2019-01-21T09:15:02.285Z,84.82
2019-01-21T09:20:02.715Z,84.82
2019-01-21T09:25:03.187Z,84.97
2019-01-21T09:30:02.568Z,85.05
2019-01-21T09:35:03.054Z,85.13
2019-01-21T09:40:02.673Z,85.12
2019-01-21T09:45:02.279Z,85.12
2019-01-21T09:50:02.702Z,85.19
2019-01-21T09:55:03.102Z,85.38
2019-01-21T10:00:02.466Z,85.46
2019-01-21T10:05:02.809Z,85.48
2019-01-21T10:10:02.722Z,85.44
2019-01-21T10:15:03.217Z,85.45
2019-01-21T10:20:02.598Z,85.57
2019-01-21T10:25:03.079Z,85.67
2019-01-21T10:30:02.452Z,85.73
2019-01-21T10:35:02.805Z,85.69
2019-01-21T10:40:03.248Z,85.63
2019-01-21T10:45:02.656Z,85.68
2019-01-21T10:50:03.040Z,85.77
2019-01-21T10:55:02.428Z,85.87
2019-01-21T11:00:01.952Z,85.86
2019-01-21T11:05:03.317Z,85.77
2019-01-21T11:10:02.729Z,85.75
2019-01-21T11:15:03.173Z,85.86
2019-01-21T11:20:04.136Z,85.94
2019-01-21T11:25:02.835Z,85.93
2019-01-21T11:30:03.275Z,85.85
2019-01-21T11:35:02.695Z,85.76
2019-01-21T11:40:03.147Z,85.74
2019-01-21T11:45:02.483Z,85.85
2019-01-21T11:50:02.930Z,85.92
2019-01-21T11:55:03.369Z,85.84
2019-01-21T12:00:02.748Z,85.77
2019-01-21T12:05:03.110Z,85.71
2019-01-21T12:10:02.507Z,85.75
2019-01-21T12:15:02.059Z,85.85
2019-01-21T12:20:02.491Z,85.88
2019-01-21T12:25:02.931Z,85.75
2019-01-21T12:30:03.269Z,85.64
2019-01-21T12:35:02.680Z,85.61
2019-01-21T12:40:03.128Z,85.62
2019-01-21T12:45:02.669Z,85.7
2019-01-21T12:50:03.101Z,85.71
2019-01-21T12:55:02.509Z,85.6
2019-01-21T13:00:02.857Z,85.52
2019-01-21T13:05:03.215Z,85.5
2019-01-21T13:10:02.641Z,85.53
2019-01-21T13:15:03.084Z,85.64
2019-01-21T13:20:01.605Z,85.57
2019-01-21T13:25:03.056Z,85.48
2019-01-21T13:30:02.549Z,85.47
2019-01-21T13:35:02.926Z,85.54
2019-01-21T13:40:02.413Z,85.61
2019-01-21T13:45:02.862Z,85.56
2019-01-21T13:50:03.295Z,85.56
2019-01-21T13:55:02.762Z,85.5
2019-01-21T14:00:03.127Z,85.54
2019-01-21T14:05:02.515Z,85.67
2019-01-21T14:10:02.957Z,85.68
2019-01-21T14:15:03.364Z,85.63
2019-01-21T14:20:02.783Z,85.5
2019-01-21T14:25:03.223Z,85.46
2019-01-21T14:30:02.637Z,85.51
2019-01-21T14:35:02.994Z,85.63
2019-01-21T14:40:02.508Z,85.66
2019-01-21T14:45:02.047Z,85.59
2019-01-21T14:50:02.488Z,85.52
2019-01-21T14:55:02.933Z,85.5
2019-01-21T15:00:03.264Z,85.54
2019-01-21T15:05:02.738Z,85.67
2019-01-21T15:10:03.306Z,85.69
2019-01-21T15:15:02.791Z,85.62
2019-01-21T15:20:03.190Z,85.55
2019-01-21T15:25:01.935Z,85.51
2019-01-21T15:30:03.398Z,85.56
2019-01-21T15:35:02.820Z,85.68
2019-01-21T15:40:03.427Z,85.67
2019-01-21T15:45:02.806Z,85.58
2019-01-21T15:50:02.388Z,85.5
2019-01-21T15:55:02.804Z,85.5
2019-01-21T16:00:03.262Z,85.59
2019-01-21T16:05:02.679Z,85.64
2019-01-21T16:10:03.172Z,85.62
2019-01-21T16:15:02.522Z,85.45
2019-01-21T16:20:03.815Z,85.4
2019-01-21T16:25:03.219Z,85.42
2019-01-21T16:30:02.632Z,85.5
2019-01-21T16:35:02.972Z,85.48
2019-01-21T16:40:02.396Z,85.39
2019-01-21T16:45:02.875Z,85.33
2019-01-21T16:50:03.288Z,85.3
2019-01-21T16:55:02.708Z,85.36
2019-01-21T17:00:03.044Z,85.41
2019-01-21T17:05:02.482Z,85.3
2019-01-21T17:10:02.910Z,85.23
2019-01-21T17:15:03.656Z,85.06
2019-01-21T17:20:03.071Z,84.92
2019-01-21T17:25:02.532Z,85.03
2019-01-21T17:30:02.121Z,85.1
2019-01-21T17:35:02.692Z,85.03
2019-01-21T17:40:03.105Z,85.02
2019-01-21T17:45:02.531Z,85.07
2019-01-21T17:50:02.854Z,85.15
2019-01-21T17:55:03.205Z,85.23
2019-01-21T18:00:03.445Z,85.18
2019-01-21T18:05:02.866Z,85.08
2019-01-21T18:10:03.309Z,85.06
2019-01-21T18:15:02.724Z,85.13
2019-01-21T18:20:03.068Z,85.2
2019-01-21T18:25:02.484Z,85.2
2019-01-21T18:30:02.869Z,85.15
2019-01-21T18:35:03.272Z,85.03
2019-01-21T18:40:02.791Z,85.01
2019-01-21T18:45:03.300Z,85.14
2019-01-21T18:50:02.673Z,85.19
2019-01-21T18:55:03.100Z,85.17
2019-01-21T19:00:02.515Z,85.07
2019-01-21T19:05:07.044Z,85.0
2019-01-21T19:10:02.450Z,85.0
2019-01-21T19:15:02.818Z,85.11
2019-01-21T19:20:03.263Z,85.15
2019-01-21T19:25:02.690Z,85.13
2019-01-21T19:30:03.085Z,85.03
2019-01-21T19:35:02.581Z,84.93
2019-01-21T19:40:03.002Z,84.93
2019-01-21T19:45:02.480Z,85.01
2019-01-21T19:50:02.852Z,85.08
2019-01-21T19:55:03.293Z,85.02
2019-01-21T20:00:02.747Z,84.94
2019-01-21T20:05:03.171Z,84.88
2019-01-21T20:10:02.606Z,84.93
2019-01-21T20:15:03.151Z,85.02
2019-01-21T20:20:06.688Z,85.07
2019-01-21T20:25:03.086Z,85.03
2019-01-21T20:30:02.566Z,84.92
2019-01-21T20:35:02.965Z,84.82
2019-01-21T20:40:02.472Z,84.85
2019-01-21T20:45:02.810Z,84.94
2019-01-21T20:50:07.335Z,84.96
2019-01-21T20:55:02.717Z,84.96
2019-01-21T21:00:03.117Z,84.87
2019-01-21T21:05:02.528Z,84.79
2019-01-21T21:10:02.983Z,84.79
2019-01-21T21:15:02.408Z,84.9
2019-01-21T21:20:02.842Z,84.94
2019-01-21T21:25:03.288Z,84.89
2019-01-21T21:30:02.697Z,84.82
2019-01-21T21:35:03.156Z,84.74
2019-01-21T21:40:02.663Z,84.78
2019-01-21T21:45:03.053Z,84.86
2019-01-21T21:50:02.469Z,84.86
2019-01-21T21:55:02.872Z,84.78
2019-01-21T22:00:03.329Z,84.69
2019-01-21T22:05:02.742Z,84.7
2019-01-21T22:10:03.192Z,84.77
2019-01-21T22:15:02.589Z,84.87
2019-01-21T22:20:03.045Z,84.85
2019-01-21T22:25:02.464Z,84.74
2019-01-21T22:30:03.135Z,84.65
2019-01-21T22:35:02.530Z,84.64
2019-01-21T22:40:02.980Z,84.7
2019-01-21T22:45:02.401Z,84.78
2019-01-21T22:50:03.077Z,84.77
2019-01-21T22:55:02.910Z,84.66
2019-01-21T23:00:03.319Z,84.59
2019-01-21T23:05:02.727Z,84.6
2019-01-21T23:10:03.178Z,84.71
2019-01-21T23:15:02.531Z,84.77
2019-01-21T23:20:02.877Z,84.75
2019-01-21T23:25:03.351Z,84.63
2019-01-21T23:30:02.794Z,84.58
2019-01-21T23:35:03.245Z,84.62
2019-01-21T23:40:02.649Z,84.7
2019-01-21T23:45:03.005Z,84.78
2019-01-21T23:50:02.417Z,84.71
2019-01-21T23:55:02.763Z,84.59
